Terminal Aerodrome Forecast
Issued by NWS New Orleans/Baton Rouge, LA

Home | Current Version | Previous Version | Text Only | Print | Product List | Glossary On
Versions: 1 2 3 4 5 6 7 8 9 10 11 12 13 14 15 16 17 18 19 20 21 22 23 24 25 26 27 28
000
FTUS44 KLIX 032339
TAFNEW
TAF
KNEW 032339Z 0400/0424 22011KT P6SM BKN250
     FM040200 21006KT P6SM BKN250
     FM040800 20004KT P6SM SCT020 BKN100
     FM041300 21007KT P6SM SCT030 BKN090
     FM042000 21009KT P6SM SCT035 BKN050
      TEMPO 0421/0424 2SM TSRA BKN030CB=

USA.gov is the U.S. government's official web portal to all federal, state and local government web resources and services.